createdAt,value
2023-01-18T00:03:47.605Z,94.80
2023-01-18T00:08:49.546Z,96.50
2023-01-18T00:13:58.025Z,94.40
2023-01-18T00:19:03.919Z,107.80
2023-01-18T00:24:11.175Z,94.20
2023-01-18T00:29:13.178Z,115.40
2023-01-18T00:34:15.414Z,78.50
2023-01-18T00:39:17.353Z,71.70
2023-01-18T00:44:19.945Z,72.80
2023-01-18T00:49:22.659Z,80.10
2023-01-18T00:54:24.638Z,96.40
2023-01-18T00:59:26.552Z,117.40
2023-01-18T01:04:47.147Z,107.40
2023-01-18T01:09:49.228Z,74.70
2023-01-18T01:15:09.899Z,66.00
2023-01-18T01:20:31.281Z,71.50
2023-01-18T01:25:51.947Z,68.10
2023-01-18T01:31:02.124Z,69.70
2023-01-18T01:36:07.321Z,48.50
2023-01-18T01:41:26.536Z,43.00
2023-01-18T01:46:35.043Z,44.60
2023-01-18T01:51:41.718Z,51.80
2023-01-18T01:56:46.858Z,37.30
2023-01-18T02:01:51.611Z,35.00
2023-01-18T02:06:53.498Z,38.30
2023-01-18T02:11:55.736Z,43.10
2023-01-18T02:17:23.326Z,33.80
2023-01-18T02:22:44.689Z,35.90
2023-01-18T02:27:55.835Z,32.40
2023-01-18T02:33:10.568Z,35.30
2023-01-18T02:38:35.663Z,30.50
2023-01-18T02:43:58.812Z,30.50
2023-01-18T02:49:06.502Z,45.80
2023-01-18T02:54:12.094Z,33.70
2023-01-18T02:59:41.357Z,46.20
2023-01-18T03:04:54.074Z,33.00
2023-01-18T03:09:58.614Z,32.70
2023-01-18T03:15:14.153Z,43.80
2023-01-18T03:20:19.782Z,45.70
2023-01-18T03:25:30.379Z,34.50
2023-01-18T03:30:53.901Z,39.50
2023-01-18T03:35:58.134Z,37.40
2023-01-18T03:41:10.768Z,36.10
2023-01-18T03:46:23.518Z,42.70
2023-01-18T03:51:33.816Z,34.30
2023-01-18T03:56:50.081Z,54.50
2023-01-18T04:01:53.013Z,49.60
2023-01-18T04:06:57.990Z,52.80
2023-01-18T04:12:00.158Z,46.10
2023-01-18T04:17:10.410Z,42.20
2023-01-18T04:22:16.325Z,45.40
2023-01-18T04:27:24.180Z,35.30
2023-01-18T04:32:29.307Z,39.90
2023-01-18T04:37:34.631Z,50.70
2023-01-18T04:42:37.149Z,59.20
2023-01-18T04:47:43.448Z,65.10
2023-01-18T04:52:50.751Z,58.80
2023-01-18T04:57:58.744Z,48.90
2023-01-18T05:03:01.395Z,50.20
2023-01-18T05:08:03.989Z,55.90
2023-01-18T05:13:06.038Z,57.50
2023-01-18T05:18:08.329Z,60.50
2023-01-18T05:23:10.930Z,55.50
2023-01-18T05:28:12.996Z,54.40
2023-01-18T05:33:15.327Z,49.10
2023-01-18T05:38:17.984Z,52.80
2023-01-18T05:43:25.391Z,53.90
2023-01-18T05:48:27.596Z,49.50
2023-01-18T05:53:29.453Z,34.30
2023-01-18T05:58:34.736Z,31.40
2023-01-18T06:03:37.195Z,36.60
2023-01-18T06:08:42.657Z,28.20
2023-01-18T06:13:44.644Z,31.50
2023-01-18T06:18:46.766Z,37.00
2023-01-18T06:23:51.531Z,40.10
2023-01-18T06:28:53.861Z,39.30
2023-01-18T06:33:56.075Z,41.00
2023-01-18T06:38:57.933Z,40.90
2023-01-18T06:44:00.158Z,55.40
2023-01-18T06:49:03.536Z,41.80
2023-01-18T06:54:06.338Z,40.90
2023-01-18T06:59:09.544Z,47.70
2023-01-18T07:04:11.453Z,47.80
2023-01-18T07:09:14.558Z,50.20
2023-01-18T07:14:16.976Z,32.10
2023-01-18T07:19:19.815Z,32.60
2023-01-18T07:24:23.067Z,47.70
2023-01-18T07:29:27.660Z,47.70
2023-01-18T07:34:29.786Z,32.70
2023-01-18T07:39:31.908Z,40.20
2023-01-18T07:44:33.742Z,35.60
2023-01-18T07:49:36.767Z,61.60
2023-01-18T07:54:39.036Z,59.80
2023-01-18T07:59:41.702Z,47.40
2023-01-18T08:04:45.220Z,49.30
2023-01-18T08:09:47.559Z,46.20
2023-01-18T08:14:49.638Z,51.90
2023-01-18T08:19:51.802Z,46.60
2023-01-18T08:24:54.755Z,32.10
2023-01-18T08:29:57.205Z,49.10
2023-01-18T08:35:00.471Z,41.40
2023-01-18T08:40:02.322Z,41.30
2023-01-18T08:45:05.212Z,31.00
2023-01-18T08:50:13.952Z,32.70
2023-01-18T08:55:16.295Z,28.10
2023-01-18T09:00:18.942Z,41.30
2023-01-18T09:05:21.306Z,37.30
2023-01-18T09:10:23.738Z,37.30
2023-01-18T09:15:27.124Z,54.30
2023-01-18T09:20:29.849Z,44.20
2023-01-18T09:25:37.258Z,47.50
2023-01-18T09:30:39.733Z,65.90
2023-01-18T09:35:41.911Z,68.50
2023-01-18T09:40:46.153Z,61.40
2023-01-18T09:45:48.274Z,59.70
2023-01-18T09:50:53.292Z,59.80
2023-01-18T09:56:03.297Z,51.20
2023-01-18T10:01:12.290Z,32.20
2023-01-18T10:06:49.387Z,47.00
2023-01-18T10:11:59.536Z,31.70
2023-01-18T10:17:14.747Z,32.90
2023-01-18T10:22:26.562Z,40.30
2023-01-18T10:27:37.675Z,38.50
2023-01-18T10:32:48.132Z,41.20
2023-01-18T10:37:51.788Z,42.10
2023-01-18T10:43:00.922Z,28.50
2023-01-18T10:48:18.636Z,23.90
2023-01-18T10:53:35.350Z,16.40
2023-01-18T10:59:01.035Z,17.40
2023-01-18T11:04:08.150Z,18.60
2023-01-18T11:09:48.581Z,18.20
2023-01-18T11:20:07.395Z,15.70
2023-01-18T11:25:17.425Z,19.30
2023-01-18T11:30:22.573Z,21.30
2023-01-18T11:35:32.962Z,21.30
2023-01-18T11:40:35.371Z,29.80
2023-01-18T11:45:49.072Z,28.70
2023-01-18T11:50:59.732Z,30.40
2023-01-18T11:56:10.036Z,32.60
2023-01-18T12:06:55.161Z,39.50
2023-01-18T12:12:21.756Z,32.10
2023-01-18T12:17:37.861Z,27.70
2023-01-18T12:23:18.242Z,29.20
2023-01-18T12:28:38.747Z,25.50
2023-01-18T12:33:47.725Z,28.00
2023-01-18T12:38:54.030Z,25.00
2023-01-18T12:44:23.075Z,24.80
2023-01-18T12:49:28.484Z,24.80
2023-01-18T12:54:36.678Z,20.60
2023-01-18T12:59:52.861Z,20.40
2023-01-18T13:05:10.396Z,20.90
2023-01-18T13:10:24.489Z,22.40
2023-01-18T13:16:09.561Z,24.80
2023-01-18T13:21:39.764Z,24.00
2023-01-18T13:26:42.965Z,26.40
2023-01-18T13:31:46.406Z,27.00
2023-01-18T13:36:49.179Z,24.80
2023-01-18T13:42:04.573Z,28.80
2023-01-18T13:47:45.890Z,30.00
2023-01-18T13:53:10.516Z,30.00
2023-01-18T13:58:25.824Z,25.50
2023-01-18T14:03:33.634Z,29.50
2023-01-18T14:08:38.257Z,28.70
2023-01-18T14:13:49.203Z,23.40
2023-01-18T14:18:58.364Z,24.00
2023-01-18T14:24:32.715Z,21.60
2023-01-18T14:29:49.947Z,20.30
2023-01-18T14:35:04.555Z,21.50
2023-01-18T14:40:16.365Z,21.40
2023-01-18T14:45:25.612Z,22.80
2023-01-18T14:50:33.032Z,18.20
2023-01-18T14:55:35.585Z,17.30
2023-01-18T15:00:53.875Z,21.30
2023-01-18T15:06:12.510Z,21.40
2023-01-18T15:11:15.188Z,23.40
2023-01-18T15:16:21.391Z,19.10
2023-01-18T15:21:36.475Z,16.90
2023-01-18T15:26:52.985Z,18.60
2023-01-18T15:32:03.573Z,17.00
2023-01-18T15:37:11.455Z,20.20
2023-01-18T15:42:15.870Z,17.80
2023-01-18T15:47:50.319Z,19.10
2023-01-18T15:53:06.048Z,19.30
2023-01-18T15:58:17.711Z,19.50
2023-01-18T16:03:23.160Z,17.00
2023-01-18T16:08:25.666Z,18.70
2023-01-18T16:13:33.930Z,16.20
2023-01-18T16:18:36.034Z,20.20
2023-01-18T16:23:43.589Z,18.40
2023-01-18T16:28:45.905Z,19.00
2023-01-18T16:33:48.093Z,14.90
2023-01-18T16:38:50.210Z,16.90
2023-01-18T16:43:52.984Z,17.40
2023-01-18T16:48:56.191Z,14.30
2023-01-18T16:54:01.739Z,17.70
2023-01-18T16:59:17.640Z,19.00
2023-01-18T17:04:22.445Z,20.90
2023-01-18T17:09:28.046Z,19.60
2023-01-18T17:14:32.790Z,21.60
2023-01-18T17:19:38.382Z,16.20
2023-01-18T17:24:40.436Z,16.10
2023-01-18T17:29:43.570Z,16.30
2023-01-18T17:34:45.747Z,14.20
2023-01-18T17:40:02.374Z,14.60
2023-01-18T17:45:14.234Z,18.70
2023-01-18T17:50:22.873Z,16.00
2023-01-18T17:55:34.262Z,14.20
2023-01-18T18:00:36.987Z,18.80
2023-01-18T18:05:39.461Z,17.80
2023-01-18T18:10:43.656Z,16.20
2023-01-18T18:15:49.073Z,16.80
2023-01-18T18:21:02.575Z,16.90
2023-01-18T18:26:05.540Z,17.00
2023-01-18T18:31:15.934Z,15.70
2023-01-18T18:41:20.102Z,16.00
2023-01-18T18:46:23.235Z,17.80
2023-01-18T18:51:25.675Z,17.10
2023-01-18T18:56:28.113Z,14.80
2023-01-18T19:01:31.207Z,17.70
2023-01-18T19:06:35.287Z,17.90
2023-01-18T19:11:39.472Z,20.30
2023-01-18T19:16:41.658Z,18.40
2023-01-18T19:21:44.106Z,19.70
2023-01-18T19:26:46.469Z,22.30
2023-01-18T19:31:48.515Z,18.20
2023-01-18T19:36:51.663Z,21.20
2023-01-18T19:41:53.592Z,18.80
2023-01-18T19:46:57.262Z,18.90
2023-01-18T19:51:59.396Z,18.20
2023-01-18T19:57:02.596Z,25.20
2023-01-18T20:02:05.115Z,20.00
2023-01-18T20:07:07.340Z,23.70
2023-01-18T20:12:10.305Z,20.60
2023-01-18T20:17:15.793Z,27.90
2023-01-18T20:22:18.319Z,25.70
2023-01-18T20:27:20.348Z,21.60
2023-01-18T20:32:22.644Z,21.20
2023-01-18T20:37:24.761Z,23.90
2023-01-18T20:42:26.835Z,22.80
2023-01-18T20:47:32.677Z,27.00
2023-01-18T20:52:34.649Z,32.30
2023-01-18T20:57:37.381Z,37.50
2023-01-18T21:02:43.182Z,42.20
2023-01-18T21:07:45.041Z,26.50
2023-01-18T21:12:48.279Z,35.30
2023-01-18T21:17:52.239Z,32.40
2023-01-18T21:22:54.329Z,35.20
2023-01-18T21:27:58.092Z,33.30
2023-01-18T21:33:01.004Z,28.80
2023-01-18T21:38:04.740Z,30.80
2023-01-18T21:43:25.442Z,29.00
2023-01-18T21:48:30.553Z,39.50
2023-01-18T21:53:51.771Z,41.00
2023-01-18T21:58:54.536Z,35.50
2023-01-18T22:04:15.558Z,41.90
2023-01-18T22:09:18.205Z,38.80
2023-01-18T22:14:23.034Z,40.20
2023-01-18T22:19:25.160Z,45.50
2023-01-18T22:24:27.202Z,45.70
2023-01-18T22:29:29.292Z,51.30
2023-01-18T22:34:36.372Z,50.40
2023-01-18T22:39:38.402Z,50.30
2023-01-18T22:44:41.723Z,50.20
2023-01-18T22:49:43.603Z,81.10
2023-01-18T22:54:46.698Z,85.10
2023-01-18T22:59:49.391Z,93.90
2023-01-18T23:04:51.367Z,94.70
2023-01-18T23:09:53.747Z,104.50
2023-01-18T23:15:14.417Z,105.20
2023-01-18T23:20:16.706Z,115.60
2023-01-18T23:25:18.743Z,96.40
2023-01-18T23:30:26.768Z,119.80
2023-01-18T23:35:31.680Z,106.40
2023-01-18T23:40:54.876Z,112.20
2023-01-18T23:46:19.949Z,103.70
2023-01-18T23:51:40.627Z,105.60
2023-01-18T23:56:44.599Z,97.70
